sensor_id;sensor_type;location;lat;lon;timestamp;P1;durP1;ratioP1;P2;durP2;ratioP2
28311;SDS011;15572;48.810;9.148;2023-01-30T00:03:10;23.13;;;13.93;;
28311;SDS011;15572;48.810;9.148;2023-01-30T00:08:07;25.90;;;14.00;;
28311;SDS011;15572;48.810;9.148;2023-01-30T00:13:03;26.20;;;13.93;;
28311;SDS011;15572;48.810;9.148;2023-01-30T00:18:00;27.97;;;13.97;;
28311;SDS011;15572;48.810;9.148;2023-01-30T00:22:58;25.03;;;13.40;;
28311;SDS011;15572;48.810;9.148;2023-01-30T00:27:54;24.97;;;13.47;;
28311;SDS011;15572;48.810;9.148;2023-01-30T00:32:52;28.17;;;14.30;;
28311;SDS011;15572;48.810;9.148;2023-01-30T00:37:50;26.70;;;14.63;;
28311;SDS011;15572;48.810;9.148;2023-01-30T00:42:47;24.73;;;13.47;;
28311;SDS011;15572;48.810;9.148;2023-01-30T00:48:01;22.60;;;13.03;;
28311;SDS011;15572;48.810;9.148;2023-01-30T00:52:58;23.97;;;13.50;;
28311;SDS011;15572;48.810;9.148;2023-01-30T00:57:56;26.50;;;14.70;;
28311;SDS011;15572;48.810;9.148;2023-01-30T01:02:52;27.60;;;13.77;;
28311;SDS011;15572;48.810;9.148;2023-01-30T01:07:49;22.93;;;12.60;;
28311;SDS011;15572;48.810;9.148;2023-01-30T01:12:45;24.03;;;12.33;;
28311;SDS011;15572;48.810;9.148;2023-01-30T01:17:45;23.63;;;11.57;;
28311;SDS011;15572;48.810;9.148;2023-01-30T01:22:42;25.10;;;13.67;;
28311;SDS011;15572;48.810;9.148;2023-01-30T01:27:39;22.77;;;13.47;;
28311;SDS011;15572;48.810;9.148;2023-01-30T01:32:35;23.13;;;12.50;;
28311;SDS011;15572;48.810;9.148;2023-01-30T01:37:33;23.97;;;12.63;;
28311;SDS011;15572;48.810;9.148;2023-01-30T01:42:31;23.10;;;13.43;;
28311;SDS011;15572;48.810;9.148;2023-01-30T01:47:30;23.27;;;13.00;;
28311;SDS011;15572;48.810;9.148;2023-01-30T01:52:29;28.27;;;13.57;;
28311;SDS011;15572;48.810;9.148;2023-01-30T01:57:29;23.50;;;11.93;;
28311;SDS011;15572;48.810;9.148;2023-01-30T02:02:29;24.17;;;13.50;;
28311;SDS011;15572;48.810;9.148;2023-01-30T02:07:25;20.03;;;12.00;;
28311;SDS011;15572;48.810;9.148;2023-01-30T02:12:24;23.43;;;12.77;;
28311;SDS011;15572;48.810;9.148;2023-01-30T02:17:22;23.60;;;13.43;;
28311;SDS011;15572;48.810;9.148;2023-01-30T02:22:23;24.17;;;12.33;;
28311;SDS011;15572;48.810;9.148;2023-01-30T02:27:34;23.87;;;13.20;;
28311;SDS011;15572;48.810;9.148;2023-01-30T02:32:59;23.73;;;12.30;;
28311;SDS011;15572;48.810;9.148;2023-01-30T02:38:09;23.67;;;13.27;;
28311;SDS011;15572;48.810;9.148;2023-01-30T02:43:14;24.17;;;12.90;;
28311;SDS011;15572;48.810;9.148;2023-01-30T02:48:22;25.53;;;13.30;;
28311;SDS011;15572;48.810;9.148;2023-01-30T02:53:22;25.90;;;13.03;;
28311;SDS011;15572;48.810;9.148;2023-01-30T02:58:19;24.77;;;13.00;;
28311;SDS011;15572;48.810;9.148;2023-01-30T03:03:30;23.53;;;12.43;;
28311;SDS011;15572;48.810;9.148;2023-01-30T03:08:39;24.33;;;12.37;;
28311;SDS011;15572;48.810;9.148;2023-01-30T03:13:43;23.97;;;12.60;;
28311;SDS011;15572;48.810;9.148;2023-01-30T03:18:48;24.10;;;13.13;;
28311;SDS011;15572;48.810;9.148;2023-01-30T03:23:45;22.57;;;12.07;;
28311;SDS011;15572;48.810;9.148;2023-01-30T03:28:42;21.83;;;12.20;;
28311;SDS011;15572;48.810;9.148;2023-01-30T03:33:40;20.80;;;11.07;;
28311;SDS011;15572;48.810;9.148;2023-01-30T03:38:37;22.37;;;11.57;;
28311;SDS011;15572;48.810;9.148;2023-01-30T03:43:34;21.53;;;12.03;;
28311;SDS011;15572;48.810;9.148;2023-01-30T03:48:30;20.67;;;11.27;;
28311;SDS011;15572;48.810;9.148;2023-01-30T03:53:27;19.87;;;11.07;;
28311;SDS011;15572;48.810;9.148;2023-01-30T03:58:25;20.27;;;11.27;;
28311;SDS011;15572;48.810;9.148;2023-01-30T04:03:21;19.93;;;10.73;;
28311;SDS011;15572;48.810;9.148;2023-01-30T04:08:18;19.33;;;10.87;;
28311;SDS011;15572;48.810;9.148;2023-01-30T04:13:14;14.67;;;8.03;;
28311;SDS011;15572;48.810;9.148;2023-01-30T04:18:12;16.73;;;10.17;;
28311;SDS011;15572;48.810;9.148;2023-01-30T04:23:08;17.53;;;9.77;;
28311;SDS011;15572;48.810;9.148;2023-01-30T04:28:05;13.83;;;8.30;;
28311;SDS011;15572;48.810;9.148;2023-01-30T04:33:01;14.20;;;8.67;;
28311;SDS011;15572;48.810;9.148;2023-01-30T04:37:59;14.37;;;8.30;;
28311;SDS011;15572;48.810;9.148;2023-01-30T04:42:55;14.50;;;8.50;;
28311;SDS011;15572;48.810;9.148;2023-01-30T04:47:52;14.93;;;8.53;;
28311;SDS011;15572;48.810;9.148;2023-01-30T04:52:48;10.93;;;6.90;;
28311;SDS011;15572;48.810;9.148;2023-01-30T04:57:47;15.57;;;8.47;;
28311;SDS011;15572;48.810;9.148;2023-01-30T05:02:43;13.13;;;8.13;;
28311;SDS011;15572;48.810;9.148;2023-01-30T05:07:40;15.97;;;8.50;;
28311;SDS011;15572;48.810;9.148;2023-01-30T05:12:36;13.27;;;7.77;;
28311;SDS011;15572;48.810;9.148;2023-01-30T05:17:34;13.23;;;7.83;;
28311;SDS011;15572;48.810;9.148;2023-01-30T05:22:31;15.37;;;8.20;;
28311;SDS011;15572;48.810;9.148;2023-01-30T05:27:27;13.73;;;8.07;;
28311;SDS011;15572;48.810;9.148;2023-01-30T05:32:24;12.87;;;7.77;;
28311;SDS011;15572;48.810;9.148;2023-01-30T05:37:22;12.87;;;7.20;;
28311;SDS011;15572;48.810;9.148;2023-01-30T05:42:19;14.50;;;8.27;;
28311;SDS011;15572;48.810;9.148;2023-01-30T05:47:15;11.93;;;7.63;;
28311;SDS011;15572;48.810;9.148;2023-01-30T05:52:12;15.00;;;8.37;;
28311;SDS011;15572;48.810;9.148;2023-01-30T05:57:10;10.97;;;7.53;;
28311;SDS011;15572;48.810;9.148;2023-01-30T06:02:07;12.43;;;7.93;;
28311;SDS011;15572;48.810;9.148;2023-01-30T06:07:04;12.33;;;8.20;;
28311;SDS011;15572;48.810;9.148;2023-01-30T06:12:00;12.40;;;7.33;;
28311;SDS011;15572;48.810;9.148;2023-01-30T06:16:58;11.37;;;6.30;;
28311;SDS011;15572;48.810;9.148;2023-01-30T06:21:54;13.37;;;7.90;;
28311;SDS011;15572;48.810;9.148;2023-01-30T06:26:51;11.03;;;6.80;;
28311;SDS011;15572;48.810;9.148;2023-01-30T06:31:47;11.80;;;7.50;;
28311;SDS011;15572;48.810;9.148;2023-01-30T06:36:45;13.27;;;7.83;;
28311;SDS011;15572;48.810;9.148;2023-01-30T06:41:42;13.73;;;7.37;;
28311;SDS011;15572;48.810;9.148;2023-01-30T06:46:38;13.33;;;7.50;;
28311;SDS011;15572;48.810;9.148;2023-01-30T06:51:34;10.07;;;6.47;;
28311;SDS011;15572;48.810;9.148;2023-01-30T06:56:32;12.90;;;7.57;;
28311;SDS011;15572;48.810;9.148;2023-01-30T07:01:29;11.67;;;7.10;;
28311;SDS011;15572;48.810;9.148;2023-01-30T07:06:25;12.87;;;7.17;;
28311;SDS011;15572;48.810;9.148;2023-01-30T07:11:22;10.53;;;6.70;;
28311;SDS011;15572;48.810;9.148;2023-01-30T07:16:20;11.90;;;7.47;;
28311;SDS011;15572;48.810;9.148;2023-01-30T07:21:22;11.53;;;6.40;;
28311;SDS011;15572;48.810;9.148;2023-01-30T07:26:19;11.20;;;6.87;;
28311;SDS011;15572;48.810;9.148;2023-01-30T07:31:16;11.03;;;6.73;;
28311;SDS011;15572;48.810;9.148;2023-01-30T07:36:14;9.90;;;6.40;;
28311;SDS011;15572;48.810;9.148;2023-01-30T07:41:11;11.50;;;6.37;;
28311;SDS011;15572;48.810;9.148;2023-01-30T07:46:07;14.40;;;7.10;;
28311;SDS011;15572;48.810;9.148;2023-01-30T07:51:04;10.13;;;6.00;;
28311;SDS011;15572;48.810;9.148;2023-01-30T07:56:06;8.00;;;4.83;;
28311;SDS011;15572;48.810;9.148;2023-01-30T08:01:03;9.37;;;5.93;;
28311;SDS011;15572;48.810;9.148;2023-01-30T08:06:00;8.73;;;5.90;;
28311;SDS011;15572;48.810;9.148;2023-01-30T08:10:56;11.00;;;5.97;;
28311;SDS011;15572;48.810;9.148;2023-01-30T08:15:54;10.47;;;6.40;;
28311;SDS011;15572;48.810;9.148;2023-01-30T08:20:50;9.13;;;5.67;;
28311;SDS011;15572;48.810;9.148;2023-01-30T08:25:47;9.40;;;5.73;;
28311;SDS011;15572;48.810;9.148;2023-01-30T08:30:43;10.30;;;6.13;;
28311;SDS011;15572;48.810;9.148;2023-01-30T08:35:41;11.97;;;6.60;;
28311;SDS011;15572;48.810;9.148;2023-01-30T08:40:37;12.33;;;7.07;;
28311;SDS011;15572;48.810;9.148;2023-01-30T08:45:34;11.57;;;7.10;;
28311;SDS011;15572;48.810;9.148;2023-01-30T08:50:31;10.87;;;6.30;;
28311;SDS011;15572;48.810;9.148;2023-01-30T08:55:29;10.10;;;6.00;;
28311;SDS011;15572;48.810;9.148;2023-01-30T09:00:26;8.57;;;5.50;;
28311;SDS011;15572;48.810;9.148;2023-01-30T09:05:23;8.80;;;5.77;;
28311;SDS011;15572;48.810;9.148;2023-01-30T09:10:20;8.00;;;5.07;;
28311;SDS011;15572;48.810;9.148;2023-01-30T09:15:19;7.67;;;4.70;;
28311;SDS011;15572;48.810;9.148;2023-01-30T09:20:16;6.43;;;4.33;;
28311;SDS011;15572;48.810;9.148;2023-01-30T09:25:14;6.90;;;4.57;;
28311;SDS011;15572;48.810;9.148;2023-01-30T09:30:11;6.63;;;4.80;;
28311;SDS011;15572;48.810;9.148;2023-01-30T09:35:09;6.47;;;4.00;;
28311;SDS011;15572;48.810;9.148;2023-01-30T09:40:08;6.70;;;3.70;;
28311;SDS011;15572;48.810;9.148;2023-01-30T09:45:26;5.13;;;3.60;;
28311;SDS011;15572;48.810;9.148;2023-01-30T09:50:50;7.47;;;4.10;;
28311;SDS011;15572;48.810;9.148;2023-01-30T09:55:59;6.60;;;4.13;;
28311;SDS011;15572;48.810;9.148;2023-01-30T10:00:58;6.23;;;3.93;;
28311;SDS011;15572;48.810;9.148;2023-01-30T10:06:04;6.67;;;4.13;;
28311;SDS011;15572;48.810;9.148;2023-01-30T10:11:04;7.07;;;3.80;;
28311;SDS011;15572;48.810;9.148;2023-01-30T10:16:13;5.47;;;3.80;;
28311;SDS011;15572;48.810;9.148;2023-01-30T10:21:17;5.60;;;3.50;;
28311;SDS011;15572;48.810;9.148;2023-01-30T10:26:26;7.43;;;3.27;;
28311;SDS011;15572;48.810;9.148;2023-01-30T10:31:24;5.17;;;3.70;;
28311;SDS011;15572;48.810;9.148;2023-01-30T10:36:27;5.23;;;2.67;;
28311;SDS011;15572;48.810;9.148;2023-01-30T10:41:31;4.37;;;3.17;;
28311;SDS011;15572;48.810;9.148;2023-01-30T10:46:36;2.87;;;2.07;;
28311;SDS011;15572;48.810;9.148;2023-01-30T10:51:55;3.23;;;2.57;;
28311;SDS011;15572;48.810;9.148;2023-01-30T10:56:59;2.27;;;1.90;;
28311;SDS011;15572;48.810;9.148;2023-01-30T11:02:05;2.40;;;1.80;;
28311;SDS011;15572;48.810;9.148;2023-01-30T11:07:13;2.77;;;1.87;;
28311;SDS011;15572;48.810;9.148;2023-01-30T11:12:10;2.87;;;2.07;;
28311;SDS011;15572;48.810;9.148;2023-01-30T11:17:07;2.13;;;1.73;;
28311;SDS011;15572;48.810;9.148;2023-01-30T11:22:13;2.93;;;2.20;;
28311;SDS011;15572;48.810;9.148;2023-01-30T11:27:10;2.53;;;1.83;;
28311;SDS011;15572;48.810;9.148;2023-01-30T11:32:13;2.60;;;1.90;;
28311;SDS011;15572;48.810;9.148;2023-01-30T11:37:31;2.70;;;2.10;;
28311;SDS011;15572;48.810;9.148;2023-01-30T11:42:29;4.00;;;2.53;;
28311;SDS011;15572;48.810;9.148;2023-01-30T11:47:27;3.10;;;2.23;;
28311;SDS011;15572;48.810;9.148;2023-01-30T11:52:26;4.67;;;2.57;;
28311;SDS011;15572;48.810;9.148;2023-01-30T11:57:25;2.97;;;2.40;;
28311;SDS011;15572;48.810;9.148;2023-01-30T12:02:23;3.77;;;2.60;;
28311;SDS011;15572;48.810;9.148;2023-01-30T12:07:21;4.93;;;3.13;;
28311;SDS011;15572;48.810;9.148;2023-01-30T12:12:28;4.53;;;3.37;;
28311;SDS011;15572;48.810;9.148;2023-01-30T12:17:31;5.47;;;3.73;;
28311;SDS011;15572;48.810;9.148;2023-01-30T12:22:34;6.90;;;4.47;;
28311;SDS011;15572;48.810;9.148;2023-01-30T12:27:42;7.27;;;3.93;;
28311;SDS011;15572;48.810;9.148;2023-01-30T12:32:45;6.73;;;3.97;;
28311;SDS011;15572;48.810;9.148;2023-01-30T12:37:45;7.00;;;4.13;;
28311;SDS011;15572;48.810;9.148;2023-01-30T12:42:59;6.50;;;3.60;;
28311;SDS011;15572;48.810;9.148;2023-01-30T12:53:58;5.07;;;3.40;;
28311;SDS011;15572;48.810;9.148;2023-01-30T12:59:04;5.37;;;3.10;;
28311;SDS011;15572;48.810;9.148;2023-01-30T13:04:08;3.67;;;2.33;;
28311;SDS011;15572;48.810;9.148;2023-01-30T13:09:15;5.97;;;2.40;;
28311;SDS011;15572;48.810;9.148;2023-01-30T13:14:28;4.93;;;2.30;;
28311;SDS011;15572;48.810;9.148;2023-01-30T13:19:30;2.43;;;1.93;;
28311;SDS011;15572;48.810;9.148;2023-01-30T13:24:39;3.07;;;1.97;;
28311;SDS011;15572;48.810;9.148;2023-01-30T13:29:44;1.60;;;1.50;;
28311;SDS011;15572;48.810;9.148;2023-01-30T13:34:43;0.90;;;0.87;;
28311;SDS011;15572;48.810;9.148;2023-01-30T13:39:43;2.37;;;1.40;;
28311;SDS011;15572;48.810;9.148;2023-01-30T13:44:44;1.63;;;1.53;;
28311;SDS011;15572;48.810;9.148;2023-01-30T13:49:43;1.53;;;1.40;;
28311;SDS011;15572;48.810;9.148;2023-01-30T13:54:50;3.60;;;1.93;;
28311;SDS011;15572;48.810;9.148;2023-01-30T14:00:15;1.73;;;1.30;;
28311;SDS011;15572;48.810;9.148;2023-01-30T14:05:35;1.60;;;1.20;;
28311;SDS011;15572;48.810;9.148;2023-01-30T14:10:58;2.50;;;1.80;;
28311;SDS011;15572;48.810;9.148;2023-01-30T14:15:57;2.10;;;1.50;;
28311;SDS011;15572;48.810;9.148;2023-01-30T14:21:10;3.90;;;2.27;;
28311;SDS011;15572;48.810;9.148;2023-01-30T14:26:08;1.90;;;1.63;;
28311;SDS011;15572;48.810;9.148;2023-01-30T14:31:07;2.57;;;1.40;;
28311;SDS011;15572;48.810;9.148;2023-01-30T14:41:31;2.03;;;1.40;;
28311;SDS011;15572;48.810;9.148;2023-01-30T14:46:42;1.97;;;1.20;;
28311;SDS011;15572;48.810;9.148;2023-01-30T14:51:41;2.07;;;1.60;;
28311;SDS011;15572;48.810;9.148;2023-01-30T14:56:41;3.70;;;2.07;;
28311;SDS011;15572;48.810;9.148;2023-01-30T15:02:02;4.43;;;2.77;;
28311;SDS011;15572;48.810;9.148;2023-01-30T15:07:03;5.53;;;3.47;;
28311;SDS011;15572;48.810;9.148;2023-01-30T15:12:14;5.63;;;2.77;;
28311;SDS011;15572;48.810;9.148;2023-01-30T15:17:26;5.17;;;3.40;;
28311;SDS011;15572;48.810;9.148;2023-01-30T15:22:29;4.00;;;2.80;;
28311;SDS011;15572;48.810;9.148;2023-01-30T15:27:38;5.87;;;3.73;;
28311;SDS011;15572;48.810;9.148;2023-01-30T15:32:48;5.23;;;3.63;;
28311;SDS011;15572;48.810;9.148;2023-01-30T15:38:01;6.27;;;3.37;;
28311;SDS011;15572;48.810;9.148;2023-01-30T15:43:06;5.20;;;3.67;;
28311;SDS011;15572;48.810;9.148;2023-01-30T15:48:19;7.57;;;3.90;;
28311;SDS011;15572;48.810;9.148;2023-01-30T15:53:40;7.53;;;2.53;;
28311;SDS011;15572;48.810;9.148;2023-01-30T15:58:39;4.93;;;3.47;;
28311;SDS011;15572;48.810;9.148;2023-01-30T16:03:39;6.03;;;3.60;;
28311;SDS011;15572;48.810;9.148;2023-01-30T16:08:36;4.80;;;3.20;;
28311;SDS011;15572;48.810;9.148;2023-01-30T16:13:33;5.90;;;3.80;;
28311;SDS011;15572;48.810;9.148;2023-01-30T16:18:31;5.73;;;3.50;;
28311;SDS011;15572;48.810;9.148;2023-01-30T16:23:34;6.73;;;3.60;;
28311;SDS011;15572;48.810;9.148;2023-01-30T16:28:32;6.57;;;3.67;;
28311;SDS011;15572;48.810;9.148;2023-01-30T16:33:29;7.10;;;3.30;;
28311;SDS011;15572;48.810;9.148;2023-01-30T16:38:34;6.67;;;3.30;;
28311;SDS011;15572;48.810;9.148;2023-01-30T16:43:34;4.93;;;3.50;;
28311;SDS011;15572;48.810;9.148;2023-01-30T16:48:31;4.50;;;2.63;;
28311;SDS011;15572;48.810;9.148;2023-01-30T16:53:30;4.50;;;3.40;;
28311;SDS011;15572;48.810;9.148;2023-01-30T16:58:30;4.20;;;3.17;;
28311;SDS011;15572;48.810;9.148;2023-01-30T17:03:30;6.10;;;3.80;;
28311;SDS011;15572;48.810;9.148;2023-01-30T17:08:36;5.87;;;3.83;;
28311;SDS011;15572;48.810;9.148;2023-01-30T17:13:43;5.00;;;3.07;;
28311;SDS011;15572;48.810;9.148;2023-01-30T17:18:41;6.30;;;3.23;;
28311;SDS011;15572;48.810;9.148;2023-01-30T17:23:37;2.17;;;1.60;;
28311;SDS011;15572;48.810;9.148;2023-01-30T17:28:34;4.20;;;2.70;;
28311;SDS011;15572;48.810;9.148;2023-01-30T17:33:36;6.30;;;3.37;;
28311;SDS011;15572;48.810;9.148;2023-01-30T17:38:33;5.37;;;3.33;;
28311;SDS011;15572;48.810;9.148;2023-01-30T17:43:29;6.13;;;3.13;;
28311;SDS011;15572;48.810;9.148;2023-01-30T17:48:26;7.17;;;3.87;;
28311;SDS011;15572;48.810;9.148;2023-01-30T17:53:24;6.40;;;3.80;;
28311;SDS011;15572;48.810;9.148;2023-01-30T17:58:20;6.63;;;4.13;;
28311;SDS011;15572;48.810;9.148;2023-01-30T18:03:17;6.80;;;4.30;;
28311;SDS011;15572;48.810;9.148;2023-01-30T18:08:14;7.63;;;4.20;;
28311;SDS011;15572;48.810;9.148;2023-01-30T18:13:11;6.50;;;3.53;;
28311;SDS011;15572;48.810;9.148;2023-01-30T18:18:08;6.17;;;3.90;;
28311;SDS011;15572;48.810;9.148;2023-01-30T18:23:07;8.33;;;4.23;;
28311;SDS011;15572;48.810;9.148;2023-01-30T18:28:05;6.40;;;3.73;;
28311;SDS011;15572;48.810;9.148;2023-01-30T18:33:03;6.70;;;4.07;;
28311;SDS011;15572;48.810;9.148;2023-01-30T18:37:59;8.57;;;4.50;;
28311;SDS011;15572;48.810;9.148;2023-01-30T18:42:56;6.43;;;4.50;;
28311;SDS011;15572;48.810;9.148;2023-01-30T18:47:52;7.47;;;4.60;;
28311;SDS011;15572;48.810;9.148;2023-01-30T18:52:50;7.60;;;4.70;;
28311;SDS011;15572;48.810;9.148;2023-01-30T18:57:47;8.30;;;4.70;;
28311;SDS011;15572;48.810;9.148;2023-01-30T19:02:43;9.87;;;3.50;;
28311;SDS011;15572;48.810;9.148;2023-01-30T19:07:40;6.07;;;4.10;;
28311;SDS011;15572;48.810;9.148;2023-01-30T19:12:37;9.57;;;4.60;;
28311;SDS011;15572;48.810;9.148;2023-01-30T19:17:51;7.27;;;3.90;;
28311;SDS011;15572;48.810;9.148;2023-01-30T19:22:48;8.30;;;4.03;;
28311;SDS011;15572;48.810;9.148;2023-01-30T19:27:46;9.30;;;5.40;;
28311;SDS011;15572;48.810;9.148;2023-01-30T19:32:42;10.37;;;4.73;;
28311;SDS011;15572;48.810;9.148;2023-01-30T19:37:39;14.30;;;5.03;;
28311;SDS011;15572;48.810;9.148;2023-01-30T19:42:35;8.03;;;4.80;;
28311;SDS011;15572;48.810;9.148;2023-01-30T19:47:33;7.50;;;5.10;;
28311;SDS011;15572;48.810;9.148;2023-01-30T19:52:30;8.17;;;4.80;;
28311;SDS011;15572;48.810;9.148;2023-01-30T19:57:26;10.77;;;5.37;;
28311;SDS011;15572;48.810;9.148;2023-01-30T20:02:22;8.27;;;5.07;;
28311;SDS011;15572;48.810;9.148;2023-01-30T20:07:20;11.05;;;6.55;;
28311;SDS011;15572;48.810;9.148;2023-01-30T20:12:17;10.38;;;5.78;;
28311;SDS011;15572;48.810;9.148;2023-01-30T20:17:13;11.35;;;6.60;;
28311;SDS011;15572;48.810;9.148;2023-01-30T20:22:09;10.63;;;6.20;;
28311;SDS011;15572;48.810;9.148;2023-01-30T20:27:07;9.60;;;6.00;;
28311;SDS011;15572;48.810;9.148;2023-01-30T20:32:04;10.05;;;5.30;;
28311;SDS011;15572;48.810;9.148;2023-01-30T20:37:00;11.53;;;6.83;;
28311;SDS011;15572;48.810;9.148;2023-01-30T20:41:57;11.02;;;6.43;;
28311;SDS011;15572;48.810;9.148;2023-01-30T20:46:55;10.50;;;6.82;;
28311;SDS011;15572;48.810;9.148;2023-01-30T20:51:51;10.93;;;7.07;;
28311;SDS011;15572;48.810;9.148;2023-01-30T20:56:49;11.38;;;6.80;;
28311;SDS011;15572;48.810;9.148;2023-01-30T21:01:46;10.23;;;6.60;;
28311;SDS011;15572;48.810;9.148;2023-01-30T21:06:44;7.43;;;5.10;;
28311;SDS011;15572;48.810;9.148;2023-01-30T21:11:41;9.33;;;4.97;;
28311;SDS011;15572;48.810;9.148;2023-01-30T21:16:38;7.63;;;4.67;;
28311;SDS011;15572;48.810;9.148;2023-01-30T21:21:35;9.63;;;5.33;;
28311;SDS011;15572;48.810;9.148;2023-01-30T21:26:35;9.40;;;4.60;;
28311;SDS011;15572;48.810;9.148;2023-01-30T21:31:33;8.90;;;5.00;;
28311;SDS011;15572;48.810;9.148;2023-01-30T21:36:31;8.70;;;3.90;;
28311;SDS011;15572;48.810;9.148;2023-01-30T21:41:28;7.37;;;4.20;;
28311;SDS011;15572;48.810;9.148;2023-01-30T21:46:47;13.57;;;4.33;;
28311;SDS011;15572;48.810;9.148;2023-01-30T21:51:44;12.93;;;5.00;;
28311;SDS011;15572;48.810;9.148;2023-01-30T21:56:42;9.63;;;4.80;;
28311;SDS011;15572;48.810;9.148;2023-01-30T22:01:39;9.30;;;4.37;;
28311;SDS011;15572;48.810;9.148;2023-01-30T22:06:37;5.73;;;3.13;;
28311;SDS011;15572;48.810;9.148;2023-01-30T22:11:35;8.77;;;4.70;;
28311;SDS011;15572;48.810;9.148;2023-01-30T22:16:32;9.63;;;4.57;;
28311;SDS011;15572;48.810;9.148;2023-01-30T22:21:30;12.03;;;4.83;;
28311;SDS011;15572;48.810;9.148;2023-01-30T22:26:30;10.13;;;5.20;;
28311;SDS011;15572;48.810;9.148;2023-01-30T22:31:28;11.20;;;4.80;;
28311;SDS011;15572;48.810;9.148;2023-01-30T22:36:27;10.83;;;5.13;;
28311;SDS011;15572;48.810;9.148;2023-01-30T22:41:25;8.43;;;4.70;;
28311;SDS011;15572;48.810;9.148;2023-01-30T22:46:25;8.83;;;4.67;;
28311;SDS011;15572;48.810;9.148;2023-01-30T22:51:24;10.40;;;4.63;;
28311;SDS011;15572;48.810;9.148;2023-01-30T22:56:22;12.03;;;4.37;;
28311;SDS011;15572;48.810;9.148;2023-01-30T23:01:21;7.30;;;4.23;;
28311;SDS011;15572;48.810;9.148;2023-01-30T23:06:21;9.10;;;4.23;;
28311;SDS011;15572;48.810;9.148;2023-01-30T23:11:20;8.33;;;4.10;;
28311;SDS011;15572;48.810;9.148;2023-01-30T23:16:19;10.43;;;4.10;;
28311;SDS011;15572;48.810;9.148;2023-01-30T23:21:18;9.10;;;3.70;;
28311;SDS011;15572;48.810;9.148;2023-01-30T23:26:15;10.20;;;3.63;;
28311;SDS011;15572;48.810;9.148;2023-01-30T23:31:12;10.40;;;4.33;;
28311;SDS011;15572;48.810;9.148;2023-01-30T23:36:11;8.50;;;4.03;;
28311;SDS011;15572;48.810;9.148;2023-01-30T23:41:11;6.40;;;3.90;;
28311;SDS011;15572;48.810;9.148;2023-01-30T23:46:13;9.13;;;4.20;;
28311;SDS011;15572;48.810;9.148;2023-01-30T23:51:12;13.03;;;4.70;;
28311;SDS011;15572;48.810;9.148;2023-01-30T23:56:10;10.20;;;4.07;;
